Time;durP1;ratioP1;P1;durP2;ratioP2;P2;SDS_P1;SDS_P2;PMS_P1;PMS_P2;Temp;Humidity;BMP_temperature;BMP_pressure;BME280_temperature;BME280_humidity;BME280_pressure;Samples;Min_cycle;Max_cycle;Signal;HPM_P1;HPM_P2
2023/07/18 00:02:26;;;;;;;2.22;1.20;;;21.90;64.10;;;;;;10444445;28;20032;-55
2023/07/18 00:07:27;;;;;;;2.72;1.35;;;21.90;63.50;;;;;;10444617;28;20108;-55
2023/07/18 00:12:28;;;;;;;3.17;1.15;;;21.90;63.50;;;;;;10410162;28;20060;-54
2023/07/18 00:17:30;;;;;;;1.13;0.60;;;21.90;63.50;;;;;;10439160;28;20114;-55
2023/07/18 00:22:31;;;;;;;1.58;0.90;;;21.90;63.50;;;;;;10443787;28;20069;-54
2023/07/18 00:27:31;;;;;;;1.92;1.00;;;21.90;63.50;;;;;;10443699;28;20017;-54
2023/07/18 00:32:32;;;;;;;2.05;1.10;;;21.90;63.50;;;;;;10443902;28;20067;-55
2023/07/18 00:37:33;;;;;;;3.15;1.20;;;21.90;63.50;;;;;;10442656;28;20096;-55
2023/07/18 00:42:33;;;;;;;2.13;1.10;;;21.80;63.50;;;;;;10441340;28;20187;-55
2023/07/18 00:47:40;;;;;;;4.35;2.35;;;21.80;63.50;;;;;;10442416;28;20100;-55
2023/07/18 00:52:52;;;;;;;2.13;0.88;;;21.90;63.50;;;;;;10443054;28;20028;-54
2023/07/18 00:57:53;;;;;;;2.38;1.00;;;21.80;63.50;;;;;;10443012;28;20017;-55
2023/07/18 01:02:54;;;;;;;1.88;0.85;;;21.80;63.40;;;;;;10443078;28;20488;-56
2023/07/18 01:07:56;;;;;;;2.47;1.23;;;21.80;63.50;;;;;;10442575;28;20024;-56
2023/07/18 01:12:59;;;;;;;1.75;1.38;;;21.80;63.50;;;;;;10404547;28;20018;-57
2023/07/18 01:18:07;;;;;;;2.30;1.35;;;21.80;63.50;;;;;;10440755;28;20021;-55
2023/07/18 01:23:07;;;;;;;2.83;1.30;;;21.80;63.50;;;;;;10442562;28;20116;-55
2023/07/18 01:28:10;;;;;;;1.20;0.90;;;21.80;63.50;;;;;;10442329;28;20083;-55
2023/07/18 01:33:11;;;;;;;2.20;0.82;;;21.80;63.50;;;;;;10442298;28;20033;-55
2023/07/18 01:38:12;;;;;;;3.17;1.08;;;21.80;63.40;;;;;;10441964;28;20029;-55
2023/07/18 01:43:13;;;;;;;2.92;1.38;;;21.80;63.50;;;;;;10442160;28;20044;-56
2023/07/18 01:48:14;;;;;;;1.52;1.00;;;21.80;63.50;;;;;;10442291;28;20432;-56
2023/07/18 01:53:14;;;;;;;2.30;1.20;;;21.70;63.40;;;;;;10442187;28;20116;-53
2023/07/18 01:58:15;;;;;;;3.60;1.13;;;21.80;63.50;;;;;;10447866;28;20021;-56
2023/07/18 02:03:16;;;;;;;2.28;0.93;;;21.70;63.40;;;;;;10449646;28;20395;-56
2023/07/18 02:08:17;;;;;;;1.80;1.30;;;21.70;63.40;;;;;;10449447;28;20021;-54
2023/07/18 02:13:17;;;;;;;1.27;1.02;;;21.70;63.50;;;;;;10448111;28;20063;-55
2023/07/18 02:18:18;;;;;;;1.73;1.00;;;21.70;63.40;;;;;;10407566;28;20036;-56
2023/07/18 02:23:19;;;;;;;1.90;0.85;;;21.70;63.40;;;;;;10407455;28;20072;-55
2023/07/18 02:28:20;;;;;;;1.75;1.30;;;21.70;63.40;;;;;;10407877;28;20159;-55
2023/07/18 02:33:21;;;;;;;2.33;1.10;;;21.70;63.40;;;;;;10407016;28;20101;-54
2023/07/18 02:38:22;;;;;;;2.35;0.82;;;21.70;63.40;;;;;;10407228;28;20029;-55
2023/07/18 02:43:23;;;;;;;2.83;1.02;;;21.70;63.40;;;;;;10406304;28;20045;-55
2023/07/18 02:48:23;;;;;;;3.15;1.20;;;21.70;63.40;;;;;;10406982;28;20049;-55
2023/07/18 02:53:24;;;;;;;1.80;0.80;;;21.70;64.00;;;;;;10406135;28;20053;-54
2023/07/18 02:58:25;;;;;;;2.25;1.05;;;21.70;63.40;;;;;;10406263;28;20045;-54
2023/07/18 03:03:27;;;;;;;2.47;0.95;;;21.70;63.30;;;;;;10405797;28;20571;-55
2023/07/18 03:08:27;;;;;;;1.42;1.00;;;21.60;63.40;;;;;;10418412;28;20021;-55
2023/07/18 03:13:28;;;;;;;2.03;1.15;;;21.60;63.30;;;;;;10408046;28;20024;-56
2023/07/18 03:18:28;;;;;;;6.68;0.98;;;21.60;63.30;;;;;;10447354;28;20013;-56
2023/07/18 03:23:29;;;;;;;2.08;1.15;;;21.60;63.30;;;;;;10446107;28;20166;-55
2023/07/18 03:28:30;;;;;;;2.42;1.10;;;21.60;63.30;;;;;;10442482;28;20427;-55
2023/07/18 03:33:31;;;;;;;1.55;1.00;;;21.60;63.30;;;;;;10446153;28;20009;-55
2023/07/18 03:38:32;;;;;;;1.67;1.00;;;21.60;63.30;;;;;;10447460;28;20067;-56
2023/07/18 03:43:33;;;;;;;1.50;1.02;;;21.60;63.30;;;;;;10446963;28;20044;-54
2023/07/18 03:48:34;;;;;;;1.27;0.88;;;21.60;63.30;;;;;;10446408;28;20033;-56
2023/07/18 03:53:34;;;;;;;1.05;0.75;;;21.60;63.30;;;;;;10446775;28;20029;-52
2023/07/18 03:58:35;;;;;;;1.40;1.20;;;21.60;63.30;;;;;;10446288;28;20100;-55
2023/07/18 04:03:37;;;;;;;1.77;0.80;;;21.60;63.30;;;;;;10445772;28;20021;-54
2023/07/18 04:08:38;;;;;;;2.60;1.50;;;21.50;63.30;;;;;;10442967;28;20017;-56
2023/07/18 04:13:39;;;;;;;2.67;1.08;;;21.50;63.90;;;;;;10408532;28;20013;-56
2023/07/18 04:18:40;;;;;;;3.03;1.33;;;21.50;63.20;;;;;;10444819;28;20025;-55
2023/07/18 04:23:40;;;;;;;1.77;1.00;;;21.50;63.30;;;;;;10446168;28;20037;-55
2023/07/18 04:28:41;;;;;;;1.52;0.80;;;21.50;63.20;;;;;;10444996;28;20086;-56
2023/07/18 04:33:42;;;;;;;1.17;0.80;;;21.50;63.30;;;;;;10443860;28;20052;-56
2023/07/18 04:38:42;;;;;;;2.67;1.08;;;21.50;63.20;;;;;;10444605;28;20096;-56
2023/07/18 04:43:43;;;;;;;1.83;0.90;;;21.50;63.30;;;;;;10444369;28;20139;-56
2023/07/18 04:48:44;;;;;;;3.60;1.10;;;21.50;63.20;;;;;;10444543;28;20033;-56
2023/07/18 04:53:44;;;;;;;1.73;0.85;;;21.50;63.20;;;;;;10443031;28;20021;-54
2023/07/18 04:58:45;;;;;;;1.15;0.70;;;21.50;63.20;;;;;;10444668;28;20029;-55
2023/07/18 05:03:46;;;;;;;2.15;1.17;;;21.50;63.20;;;;;;10444107;28;20055;-55
2023/07/18 05:08:46;;;;;;;1.77;0.90;;;21.50;63.30;;;;;;10440103;28;20017;-56
2023/07/18 05:13:47;;;;;;;1.63;1.13;;;21.50;63.30;;;;;;10407861;28;20077;-55
2023/07/18 05:18:48;;;;;;;1.48;1.00;;;21.50;63.30;;;;;;10443907;28;20108;-55
2023/07/18 05:23:48;;;;;;;2.30;1.00;;;21.50;63.30;;;;;;10444276;28;20478;-56
2023/07/18 05:28:51;;;;;;;1.45;0.80;;;21.50;63.30;;;;;;10443714;28;20078;-55
2023/07/18 05:33:51;;;;;;;1.70;1.20;;;21.50;63.20;;;;;;10450956;28;20043;-56
2023/07/18 05:38:52;;;;;;;2.80;1.38;;;21.50;63.20;;;;;;10451652;28;20028;-55
2023/07/18 05:43:53;;;;;;;2.58;1.20;;;21.50;63.30;;;;;;10425192;28;20615;-56
2023/07/18 05:48:54;;;;;;;2.15;1.25;;;21.50;63.30;;;;;;10409928;28;20076;-56
2023/07/18 05:53:54;;;;;;;2.33;1.00;;;21.50;63.30;;;;;;10410083;28;20010;-55
2023/07/18 05:58:55;;;;;;;1.83;1.00;;;21.50;63.30;;;;;;10408521;28;20067;-55
2023/07/18 06:03:57;;;;;;;1.65;1.15;;;21.50;63.30;;;;;;10409176;28;20248;-56
2023/07/18 06:08:58;;;;;;;2.60;1.27;;;21.50;63.30;;;;;;10423217;28;20033;-54
2023/07/18 06:13:59;;;;;;;3.33;1.40;;;21.50;63.30;;;;;;10415837;28;20400;-56
2023/07/18 06:19:00;;;;;;;3.30;1.10;;;21.50;63.20;;;;;;10450230;28;20637;-55
2023/07/18 06:24:01;;;;;;;2.42;1.20;;;21.50;63.20;;;;;;10450176;28;20120;-56
2023/07/18 06:29:01;;;;;;;2.25;1.50;;;21.50;63.20;;;;;;10449860;28;20025;-54
2023/07/18 06:34:02;;;;;;;3.40;1.30;;;21.50;63.30;;;;;;10449711;28;20029;-55
2023/07/18 06:39:05;;;;;;;1.98;1.10;;;21.50;63.40;;;;;;10449039;28;20021;-56
2023/07/18 06:44:07;;;;;;;1.63;1.25;;;21.50;63.30;;;;;;10448446;28;20025;-55
2023/07/18 06:49:08;;;;;;;3.15;1.17;;;21.50;63.20;;;;;;10449342;28;20018;-56
2023/07/18 06:54:09;;;;;;;2.65;1.17;;;21.50;63.20;;;;;;10448819;28;20025;-56
2023/07/18 06:59:09;;;;;;;2.28;1.25;;;21.50;63.30;;;;;;10448972;28;20435;-55
2023/07/18 07:04:10;;;;;;;2.05;1.25;;;21.50;63.30;;;;;;10448523;28;20087;-55
2023/07/18 07:09:13;;;;;;;4.35;1.10;;;21.50;63.30;;;;;;10441224;28;20083;-55
2023/07/18 07:14:14;;;;;;;2.05;1.10;;;21.60;63.40;;;;;;10415612;28;20647;-56
2023/07/18 07:19:14;;;;;;;2.35;1.20;;;21.60;63.10;;;;;;10448174;28;20082;-56
2023/07/18 07:24:15;;;;;;;2.53;1.50;;;21.60;63.00;;;;;;10448483;28;20057;-56
2023/07/18 07:29:16;;;;;;;2.47;1.40;;;21.70;63.00;;;;;;10447477;28;20032;-54
2023/07/18 07:34:16;;;;;;;2.08;1.50;;;21.70;63.00;;;;;;10447397;28;20078;-56
2023/07/18 07:39:17;;;;;;;1.35;1.08;;;21.70;63.00;;;;;;10447614;28;20199;-54
2023/07/18 07:44:18;;;;;;;2.40;1.27;;;21.70;63.00;;;;;;10446909;28;20033;-56
2023/07/18 07:49:20;;;;;;;2.65;1.40;;;21.80;63.10;;;;;;10446843;28;20677;-56
2023/07/18 07:54:21;;;;;;;1.67;1.02;;;21.80;63.00;;;;;;10445193;28;20017;-55
2023/07/18 07:59:22;;;;;;;1.85;1.08;;;21.80;63.00;;;;;;10446271;28;20029;-55
2023/07/18 08:04:22;;;;;;;2.03;1.38;;;21.80;63.00;;;;;;10445690;28;20051;-55
2023/07/18 08:09:23;;;;;;;1.50;1.00;;;21.80;63.00;;;;;;10436884;28;20536;-56
2023/07/18 08:14:24;;;;;;;2.13;1.30;;;21.80;63.00;;;;;;10414523;28;20028;-57
2023/07/18 08:19:26;;;;;;;2.33;0.82;;;21.90;63.00;;;;;;10445581;28;20025;-54
2023/07/18 08:24:26;;;;;;;3.22;1.10;;;21.90;63.10;;;;;;10445343;28;20492;-56
2023/07/18 08:29:30;;;;;;;1.65;1.20;;;21.90;63.00;;;;;;10445356;28;20021;-54
2023/07/18 08:34:31;;;;;;;2.75;1.38;;;21.90;63.10;;;;;;10445199;28;20036;-55
2023/07/18 08:39:32;;;;;;;2.40;1.33;;;21.90;63.00;;;;;;10445337;28;20117;-55
2023/07/18 08:44:35;;;;;;;2.83;1.70;;;21.90;63.00;;;;;;10444518;28;20128;-55
2023/07/18 08:49:39;;;;;;;3.33;1.15;;;21.90;63.00;;;;;;10444649;28;20025;-55
2023/07/18 08:54:40;;;;;;;1.75;1.05;;;21.90;62.90;;;;;;10444964;28;20055;-56
2023/07/18 08:59:41;;;;;;;2.60;2.00;;;22.00;63.00;;;;;;10444772;28;20072;-56
2023/07/18 09:04:46;;;;;;;2.75;1.33;;;22.00;62.90;;;;;;10443702;28;20029;-55
2023/07/18 09:09:47;;;;;;;2.33;1.08;;;22.00;62.80;;;;;;10431945;28;20014;-56
2023/07/18 09:14:55;;;;;;;1.52;0.90;;;22.00;62.80;;;;;;10416336;28;20057;-55
2023/07/18 09:19:55;;;;;;;2.33;1.35;;;22.00;62.60;;;;;;10443363;28;20143;-56
2023/07/18 09:24:56;;;;;;;1.70;0.75;;;22.00;62.70;;;;;;10444013;28;20117;-55
2023/07/18 09:29:57;;;;;;;1.52;1.17;;;22.00;62.70;;;;;;10444024;28;20100;-56
2023/07/18 09:35:01;;;;;;;2.55;1.25;;;22.00;63.20;;;;;;10443617;28;20120;-55
2023/07/18 09:40:02;;;;;;;2.70;1.15;;;22.00;62.20;;;;;;10443172;28;20079;-55
2023/07/18 09:45:05;;;;;;;2.05;1.00;;;22.10;62.50;;;;;;10441775;28;20025;-56
2023/07/18 09:50:06;;;;;;;4.00;1.40;;;22.10;62.60;;;;;;10442123;28;20044;-55
2023/07/18 09:55:09;;;;;;;1.83;0.98;;;22.10;62.50;;;;;;10443271;28;20017;-56
2023/07/18 10:00:11;;;;;;;1.48;0.90;;;22.10;62.50;;;;;;10443423;28;20021;-56
2023/07/18 10:05:14;;;;;;;2.33;1.20;;;22.10;62.40;;;;;;10443452;28;20419;-55
2023/07/18 10:10:15;;;;;;;1.88;1.00;;;22.10;62.40;;;;;;10426209;28;20100;-56
2023/07/18 10:15:15;;;;;;;2.08;0.90;;;22.10;62.20;;;;;;10418781;28;20048;-56
2023/07/18 10:20:21;;;;;;;1.95;1.48;;;22.10;62.30;;;;;;10417204;28;20314;-56
2023/07/18 10:25:22;;;;;;;2.00;1.20;;;22.20;62.20;;;;;;10409261;28;20136;-54
2023/07/18 10:30:23;;;;;;;2.72;1.00;;;22.20;62.20;;;;;;10408264;28;20661;-54
2023/07/18 10:35:27;;;;;;;1.27;0.80;;;22.20;62.90;;;;;;10408692;28;20449;-56
2023/07/18 10:40:43;;;;;;;1.58;0.70;;;22.20;62.20;;;;;;10408386;28;20055;-55
2023/07/18 10:45:44;;;;;;;2.60;1.05;;;22.20;62.10;;;;;;10406611;28;20033;-54
2023/07/18 10:50:47;;;;;;;3.78;1.48;;;22.20;62.00;;;;;;10408083;28;20025;-56
2023/07/18 10:55:48;;;;;;;1.23;0.82;;;22.20;62.10;;;;;;10406484;28;20377;-56
2023/07/18 11:00:50;;;;;;;1.35;0.85;;;22.20;61.90;;;;;;10407702;28;20026;-55
2023/07/18 11:05:52;;;;;;;1.50;1.20;;;22.20;61.90;;;;;;10407353;28;20021;-56
2023/07/18 11:11:04;;;;;;;4.05;1.42;;;22.20;61.90;;;;;;10428619;28;20120;-57
2023/07/18 11:16:09;;;;;;;2.33;1.08;;;22.30;61.70;;;;;;10424548;28;20017;-55
2023/07/18 11:21:11;;;;;;;1.38;1.20;;;22.30;61.40;;;;;;10406980;28;20571;-58
2023/07/18 11:26:18;;;;;;;1.13;0.80;;;22.30;61.80;;;;;;10406703;28;20480;-54
2023/07/18 11:31:31;;;;;;;1.00;0.73;;;22.30;61.70;;;;;;10405633;28;20477;-55
2023/07/18 11:36:35;;;;;;;2.28;0.90;;;22.40;61.60;;;;;;10405945;28;20060;-55
2023/07/18 11:41:40;;;;;;;1.40;1.00;;;22.30;61.40;;;;;;10405577;28;20052;-56
2023/07/18 11:46:44;;;;;;;1.70;0.85;;;22.30;61.70;;;;;;10405853;28;20037;-55
2023/07/18 11:51:45;;;;;;;3.65;1.42;;;22.40;61.40;;;;;;10405408;28;20025;-55
2023/07/18 11:56:45;;;;;;;2.38;0.90;;;22.40;61.40;;;;;;10405164;28;20507;-56
2023/07/18 12:01:46;;;;;;;3.28;1.17;;;22.40;61.00;;;;;;10405137;28;20028;-55
2023/07/18 12:06:47;;;;;;;0.73;0.60;;;22.40;61.30;;;;;;10405165;28;20089;-55
2023/07/18 12:11:47;;;;;;;1.40;0.90;;;22.40;61.40;;;;;;10417264;28;20584;-56
2023/07/18 12:16:48;;;;;;;2.47;0.63;;;22.50;61.60;;;;;;10434697;28;20101;-55
2023/07/18 12:21:49;;;;;;;3.00;1.92;;;22.50;61.20;;;;;;10445347;28;20572;-55
2023/07/18 12:26:49;;;;;;;1.30;0.90;;;22.50;61.50;;;;;;10445550;28;20032;-55
2023/07/18 12:31:51;;;;;;;1.17;0.82;;;22.50;61.40;;;;;;10445453;28;20067;-55
2023/07/18 12:36:52;;;;;;;1.50;0.73;;;22.50;61.30;;;;;;10445042;28;20486;-55
2023/07/18 12:41:53;;;;;;;3.08;0.90;;;22.50;60.90;;;;;;10444344;28;20033;-55
2023/07/18 12:46:55;;;;;;;1.20;0.70;;;22.50;61.10;;;;;;10444705;28;20166;-55
2023/07/18 12:51:56;;;;;;;1.23;0.80;;;22.50;61.20;;;;;;10444485;28;20025;-55
2023/07/18 12:56:56;;;;;;;2.92;1.05;;;22.50;61.10;;;;;;10444823;28;20082;-56
2023/07/18 13:01:58;;;;;;;1.85;0.73;;;22.50;61.10;;;;;;10444040;28;20029;-56
2023/07/18 13:06:58;;;;;;;1.10;0.73;;;22.50;60.90;;;;;;10444216;28;20025;-54
2023/07/18 13:11:59;;;;;;;1.27;0.93;;;22.50;61.60;;;;;;10442963;28;20097;-54
2023/07/18 13:17:00;;;;;;;1.13;0.70;;;22.60;61.10;;;;;;10412564;28;20562;-54
2023/07/18 13:22:00;;;;;;;1.92;1.00;;;22.60;61.00;;;;;;10402681;28;20092;-56
2023/07/18 13:27:01;;;;;;;1.70;0.90;;;22.50;60.90;;;;;;10403026;28;20078;-55
2023/07/18 13:32:02;;;;;;;1.88;1.23;;;22.50;61.00;;;;;;10403033;28;20022;-55
2023/07/18 13:37:03;;;;;;;1.75;0.90;;;22.50;60.80;;;;;;10402842;28;20038;-55
2023/07/18 13:42:05;;;;;;;1.13;1.02;;;22.50;60.50;;;;;;10402307;28;20173;-55
2023/07/18 13:47:06;;;;;;;1.42;0.82;;;22.50;60.40;;;;;;10402314;28;20017;-55
2023/07/18 13:52:07;;;;;;;2.45;1.30;;;22.50;60.60;;;;;;10404621;28;20418;-54
2023/07/18 13:57:07;;;;;;;2.17;0.68;;;22.50;61.00;;;;;;10409554;28;20037;-56
2023/07/18 14:02:09;;;;;;;1.90;1.52;;;22.50;61.20;;;;;;10409319;28;20032;-55
2023/07/18 14:07:09;;;;;;;1.42;0.85;;;22.50;61.10;;;;;;10412183;28;20451;-54
2023/07/18 14:12:11;;;;;;;4.38;1.05;;;22.50;61.00;;;;;;10418659;28;20025;-55
2023/07/18 14:17:12;;;;;;;1.33;0.80;;;22.50;60.80;;;;;;10442408;28;20313;-55
2023/07/18 14:22:16;;;;;;;2.20;0.70;;;22.50;61.00;;;;;;10450307;28;20090;-55
2023/07/18 14:27:17;;;;;;;1.83;0.80;;;22.50;61.00;;;;;;10450001;28;20106;-55
2023/07/18 14:32:17;;;;;;;0.80;0.65;;;22.40;60.70;;;;;;10449830;28;20125;-55
2023/07/18 14:37:18;;;;;;;1.90;0.98;;;22.40;61.10;;;;;;10458012;28;20107;-54
2023/07/18 14:42:19;;;;;;;1.77;0.90;;;22.40;61.20;;;;;;10413288;28;20041;-59
2023/07/18 14:47:20;;;;;;;1.75;0.77;;;22.40;61.30;;;;;;10427616;28;20464;-59
2023/07/18 14:52:20;;;;;;;2.08;0.70;;;22.50;60.50;;;;;;10448520;28;20032;-58
2023/07/18 14:57:21;;;;;;;2.13;0.90;;;22.50;60.60;;;;;;10449453;28;20104;-58
2023/07/18 15:02:22;;;;;;;1.20;0.70;;;22.40;59.30;;;;;;10446711;28;20789;-56
2023/07/18 15:07:22;;;;;;;1.25;0.80;;;22.50;59.20;;;;;;10443413;28;20095;-57
2023/07/18 15:12:23;;;;;;;2.45;0.70;;;22.50;59.20;;;;;;10428771;28;20048;-56
2023/07/18 15:17:24;;;;;;;2.58;0.85;;;22.50;59.60;;;;;;10440366;28;20025;-55
2023/07/18 15:22:25;;;;;;;1.67;0.55;;;22.50;60.10;;;;;;10444187;28;20140;-56
2023/07/18 15:27:25;;;;;;;0.95;0.60;;;22.40;60.00;;;;;;10395396;28;20104;-57
2023/07/18 15:32:26;;;;;;;1.48;1.00;;;22.50;60.10;;;;;;10349992;28;20015;-57
2023/07/18 15:37:27;;;;;;;3.13;0.80;;;22.50;60.10;;;;;;10324763;28;20029;-56
2023/07/18 15:42:27;;;;;;;1.77;0.80;;;22.50;59.40;;;;;;10356131;28;20124;-57
2023/07/18 15:47:28;;;;;;;2.45;0.80;;;22.50;59.50;;;;;;10324607;28;20037;-56
2023/07/18 15:52:29;;;;;;;2.08;0.82;;;22.50;59.40;;;;;;10324001;28;20334;-57
2023/07/18 15:57:29;;;;;;;1.25;0.90;;;22.50;59.70;;;;;;10324149;28;20482;-57
2023/07/18 16:02:30;;;;;;;1.20;0.80;;;22.50;59.90;;;;;;10337372;28;20532;-55
2023/07/18 16:07:31;;;;;;;1.52;0.57;;;22.50;60.30;;;;;;10330111;28;20014;-57
2023/07/18 16:12:32;;;;;;;2.35;1.30;;;22.50;59.90;;;;;;10363707;28;20440;-56
2023/07/18 16:17:32;;;;;;;1.63;0.70;;;22.50;59.80;;;;;;10360291;28;20577;-56
2023/07/18 16:22:33;;;;;;;2.08;0.70;;;22.50;60.00;;;;;;10322588;28;20034;-56
2023/07/18 16:27:34;;;;;;;1.33;0.70;;;22.50;60.00;;;;;;10322830;28;20065;-57
2023/07/18 16:32:34;;;;;;;1.20;0.57;;;22.50;60.00;;;;;;10322799;28;20313;-57
2023/07/18 16:37:35;;;;;;;1.58;0.80;;;22.50;60.00;;;;;;10350373;28;20388;-56
2023/07/18 16:42:35;;;;;;;1.30;0.82;;;22.50;60.10;;;;;;10362722;28;20034;-57
2023/07/18 16:47:37;;;;;;;3.05;0.90;;;22.60;60.00;;;;;;10362984;28;20050;-57
2023/07/18 16:52:38;;;;;;;1.38;0.90;;;22.60;59.90;;;;;;10363303;28;20124;-56
2023/07/18 16:57:39;;;;;;;1.00;0.68;;;22.60;60.10;;;;;;10363021;28;20116;-57
2023/07/18 17:02:39;;;;;;;1.40;0.77;;;22.60;60.20;;;;;;10362826;28;20034;-56
2023/07/18 17:07:40;;;;;;;1.38;0.80;;;22.60;60.30;;;;;;10362304;28;20480;-57
2023/07/18 17:12:41;;;;;;;1.30;0.77;;;22.60;60.20;;;;;;10362461;28;20130;-57
2023/07/18 17:17:41;;;;;;;1.73;0.75;;;22.60;60.20;;;;;;10325809;28;20122;-55
2023/07/18 17:22:42;;;;;;;1.40;0.60;;;22.60;60.20;;;;;;10322008;28;20113;-56
2023/07/18 17:27:43;;;;;;;1.05;0.60;;;22.60;60.30;;;;;;10325063;28;20022;-56
2023/07/18 17:32:43;;;;;;;1.65;1.00;;;22.60;60.40;;;;;;10329819;28;20023;-56
2023/07/18 17:37:44;;;;;;;0.80;0.60;;;22.60;60.40;;;;;;10329475;28;20501;-57
2023/07/18 17:42:45;;;;;;;2.15;0.70;;;22.60;60.50;;;;;;10329129;28;20047;-56
2023/07/18 17:47:46;;;;;;;1.38;0.80;;;22.50;60.60;;;;;;10328821;28;20509;-57
2023/07/18 17:52:47;;;;;;;0.88;0.60;;;22.60;60.60;;;;;;10329235;28;20022;-57
2023/07/18 17:57:48;;;;;;;2.03;0.80;;;22.60;60.60;;;;;;10328491;28;20109;-54
2023/07/18 18:02:48;;;;;;;2.30;0.80;;;22.50;61.10;;;;;;10329129;28;20022;-55
2023/07/18 18:07:49;;;;;;;2.38;0.68;;;22.50;60.50;;;;;;10337365;28;20033;-56
2023/07/18 18:12:50;;;;;;;1.08;0.70;;;22.50;60.50;;;;;;10368377;28;20469;-56
2023/07/18 18:17:51;;;;;;;1.25;0.70;;;22.60;60.60;;;;;;10331110;28;20023;-57
2023/07/18 18:22:51;;;;;;;0.88;0.63;;;22.50;60.60;;;;;;10327499;28;20034;-57
2023/07/18 18:27:54;;;;;;;0.82;0.60;;;22.50;60.60;;;;;;10327392;28;20026;-58
2023/07/18 18:32:54;;;;;;;1.35;0.77;;;22.50;60.80;;;;;;10327411;28;20033;-55
2023/07/18 18:37:55;;;;;;;1.30;0.70;;;22.50;60.90;;;;;;10326247;28;20485;-57
2023/07/18 18:42:56;;;;;;;1.40;0.70;;;22.50;61.00;;;;;;10326654;28;20076;-56
2023/07/18 18:47:56;;;;;;;1.13;0.90;;;22.50;61.20;;;;;;10326817;28;20026;-57
2023/07/18 18:52:57;;;;;;;1.27;0.60;;;22.40;61.20;;;;;;10326350;28;20030;-56
2023/07/18 18:57:58;;;;;;;1.23;0.90;;;22.40;61.30;;;;;;10326442;28;20110;-55
2023/07/18 19:02:58;;;;;;;0.95;0.60;;;22.50;61.40;;;;;;10325954;28;20161;-56
2023/07/18 19:07:59;;;;;;;2.45;0.80;;;22.40;61.40;;;;;;10351029;28;20470;-57
2023/07/18 19:13:00;;;;;;;2.33;0.60;;;22.40;61.50;;;;;;10366102;28;20053;-56
2023/07/18 19:18:01;;;;;;;0.70;0.60;;;22.40;61.60;;;;;;10358927;28;20393;-56
2023/07/18 19:23:01;;;;;;;1.00;0.65;;;22.40;61.60;;;;;;10325281;28;20461;-57
2023/07/18 19:28:02;;;;;;;1.20;0.70;;;22.40;61.60;;;;;;10325510;28;20102;-58
2023/07/18 19:33:03;;;;;;;1.42;1.13;;;22.40;61.60;;;;;;10325279;28;20038;-57
2023/07/18 19:38:04;;;;;;;0.93;0.70;;;22.40;61.70;;;;;;10325042;28;20027;-57
2023/07/18 19:43:05;;;;;;;1.15;0.70;;;22.40;61.70;;;;;;10324314;28;20120;-56
2023/07/18 19:48:05;;;;;;;0.80;0.40;;;22.40;61.80;;;;;;10324146;28;20054;-57
2023/07/18 19:53:06;;;;;;;1.15;0.80;;;22.40;61.80;;;;;;10324264;28;20449;-56
2023/07/18 19:58:07;;;;;;;1.15;0.50;;;22.40;61.80;;;;;;10323835;28;20035;-56
2023/07/18 20:03:08;;;;;;;1.15;0.68;;;22.40;61.90;;;;;;10323378;28;20549;-56
2023/07/18 20:08:08;;;;;;;1.70;0.82;;;22.40;61.80;;;;;;10346907;28;20102;-55
2023/07/18 20:13:09;;;;;;;2.83;0.68;;;22.40;62.00;;;;;;10363992;28;20022;-56
2023/07/18 20:18:10;;;;;;;1.13;0.77;;;22.40;61.90;;;;;;10323351;28;20089;-57
2023/07/18 20:23:11;;;;;;;1.13;0.65;;;22.40;61.90;;;;;;10323335;28;20034;-56
2023/07/18 20:28:12;;;;;;;1.30;0.60;;;22.40;61.90;;;;;;10324870;28;20023;-57
2023/07/18 20:33:12;;;;;;;1.48;0.80;;;22.30;61.80;;;;;;10321892;28;20659;-56
2023/07/18 20:38:14;;;;;;;1.65;0.73;;;22.40;61.90;;;;;;10321435;28;20417;-57
2023/07/18 20:43:15;;;;;;;1.38;0.80;;;22.40;61.90;;;;;;10320566;28;20489;-55
2023/07/18 20:48:15;;;;;;;1.52;0.70;;;22.40;61.90;;;;;;10320914;28;20019;-56
2023/07/18 20:53:16;;;;;;;1.20;0.70;;;22.40;62.00;;;;;;10320492;28;20101;-57
2023/07/18 20:58:17;;;;;;;1.85;0.90;;;22.30;62.00;;;;;;10335793;28;20470;-55
2023/07/18 21:03:18;;;;;;;1.13;0.75;;;22.40;62.00;;;;;;10319641;28;20040;-55
2023/07/18 21:08:18;;;;;;;1.40;0.65;;;22.30;62.00;;;;;;10333597;28;20102;-56
2023/07/18 21:13:19;;;;;;;1.08;0.70;;;22.30;61.90;;;;;;10359900;28;20485;-57
2023/07/18 21:18:20;;;;;;;0.95;0.77;;;22.30;61.90;;;;;;10320571;28;20023;-56
2023/07/18 21:23:20;;;;;;;0.95;0.57;;;22.30;62.00;;;;;;10319898;28;20035;-55
2023/07/18 21:28:21;;;;;;;0.73;0.52;;;22.30;62.00;;;;;;10320413;28;20019;-56
2023/07/18 21:33:22;;;;;;;1.10;0.50;;;22.30;62.00;;;;;;10320027;28;20109;-56
2023/07/18 21:38:22;;;;;;;1.98;0.80;;;22.30;62.00;;;;;;10319990;28;20430;-55
2023/07/18 21:43:23;;;;;;;1.80;0.98;;;22.30;62.10;;;;;;10319632;28;20072;-57
2023/07/18 21:48:24;;;;;;;2.40;0.70;;;22.30;62.10;;;;;;10319773;28;20101;-57
2023/07/18 21:53:25;;;;;;;1.45;0.80;;;22.30;62.10;;;;;;10319854;28;20019;-56
2023/07/18 21:58:25;;;;;;;0.88;0.70;;;22.30;62.10;;;;;;10319697;28;20105;-56
2023/07/18 22:03:26;;;;;;;1.55;0.70;;;22.30;62.20;;;;;;10320144;28;20118;-56
2023/07/18 22:08:27;;;;;;;1.65;0.88;;;22.30;62.20;;;;;;10333582;28;20010;-57
2023/07/18 22:13:30;;;;;;;1.50;0.82;;;22.30;62.20;;;;;;10360380;28;20080;-56
2023/07/18 22:18:32;;;;;;;1.00;0.80;;;22.30;62.30;;;;;;10326843;28;20521;-56
2023/07/18 22:23:32;;;;;;;1.58;1.20;;;22.30;62.30;;;;;;10326544;28;20196;-57
2023/07/18 22:28:33;;;;;;;1.80;0.75;;;22.30;62.30;;;;;;10326209;28;20461;-56
2023/07/18 22:33:34;;;;;;;1.85;0.90;;;22.30;62.30;;;;;;10326476;28;20116;-55
2023/07/18 22:38:34;;;;;;;4.90;0.93;;;22.20;62.20;;;;;;10325725;28;20105;-55
2023/07/18 22:43:35;;;;;;;1.05;0.93;;;22.30;62.30;;;;;;10325709;28;20052;-56
2023/07/18 22:48:36;;;;;;;0.98;0.70;;;22.30;62.40;;;;;;10325706;28;20015;-56
2023/07/18 22:53:37;;;;;;;1.35;0.85;;;22.30;62.40;;;;;;10325306;28;20044;-56
2023/07/18 22:58:37;;;;;;;1.98;0.93;;;22.30;62.50;;;;;;10325174;28;20564;-57
2023/07/18 23:03:40;;;;;;;1.08;0.70;;;22.20;62.50;;;;;;10324926;28;20538;-55
2023/07/18 23:08:40;;;;;;;0.73;0.60;;;22.30;62.50;;;;;;10371934;28;20029;-57
2023/07/18 23:13:41;;;;;;;2.75;1.00;;;22.30;62.60;;;;;;10393116;28;20040;-57
2023/07/18 23:18:42;;;;;;;2.00;0.70;;;22.20;62.50;;;;;;10322924;28;20106;-56
2023/07/18 23:23:43;;;;;;;0.80;0.73;;;22.20;62.50;;;;;;10323247;28;20038;-57
2023/07/18 23:28:44;;;;;;;2.65;0.82;;;22.20;62.50;;;;;;10324025;28;20015;-57
2023/07/18 23:33:46;;;;;;;1.95;0.80;;;22.20;62.60;;;;;;10323623;28;20018;-57
2023/07/18 23:38:46;;;;;;;0.82;0.60;;;22.20;62.60;;;;;;10324013;28;20018;-56
2023/07/18 23:43:47;;;;;;;1.50;0.73;;;22.20;62.60;;;;;;10323441;28;20409;-56
2023/07/18 23:48:48;;;;;;;1.55;0.63;;;22.20;62.60;;;;;;10322840;28;20058;-57
2023/07/18 23:53:48;;;;;;;1.55;1.05;;;22.20;62.60;;;;;;10323029;28;20026;-56
2023/07/18 23:58:49;;;;;;;1.83;0.80;;;22.20;62.70;;;;;;10323070;28;20153;-56
